createdAt,value
2017-12-13T18:43:11.542Z,7.20
2017-12-13T18:45:40.434Z,7.93
2017-12-13T18:48:08.994Z,7.40
2017-12-13T18:50:36.572Z,6.20
2017-12-13T18:53:04.078Z,7.10
2017-12-13T18:55:31.632Z,6.50
2017-12-13T18:57:59.211Z,6.82
2017-12-13T19:00:29.451Z,6.60
2017-12-13T19:02:57.023Z,6.47
2017-12-13T19:05:24.605Z,6.00
2017-12-13T19:07:52.101Z,6.70
2017-12-13T19:10:19.612Z,6.80
2017-12-13T19:12:47.171Z,5.63
2017-12-13T19:15:14.702Z,6.10
2017-12-13T19:17:42.995Z,6.23
2017-12-13T19:20:10.558Z,5.80
2017-12-13T19:22:38.070Z,6.70
2017-12-13T19:25:05.598Z,5.65
2017-12-13T19:27:33.147Z,6.63
2017-12-13T19:30:00.669Z,6.00
2017-12-13T19:32:28.937Z,5.70
2017-12-13T19:34:56.501Z,5.65
2017-12-13T19:37:24.001Z,6.00
2017-12-13T19:39:51.550Z,5.17
2017-12-13T19:42:19.120Z,5.93
2017-12-13T19:44:46.666Z,5.90
2017-12-13T19:47:14.193Z,6.43
2017-12-13T19:49:42.113Z,5.80
2017-12-13T19:52:09.630Z,5.72
2017-12-13T19:54:37.934Z,5.67
2017-12-13T19:57:05.493Z,5.00
2017-12-13T19:59:33.034Z,6.32
2017-12-13T20:02:01.367Z,6.00
2017-12-13T20:04:28.931Z,5.22
2017-12-13T20:06:56.513Z,6.27
2017-12-13T20:09:24.081Z,6.10
2017-12-13T20:11:52.410Z,13.65
2017-12-13T20:14:19.953Z,12.70
2017-12-13T20:16:47.522Z,12.83
2017-12-13T20:19:15.067Z,7.07
2017-12-13T20:21:42.592Z,6.45
2017-12-13T20:24:10.102Z,7.17
2017-12-13T20:26:37.734Z,6.97
2017-12-13T20:29:06.237Z,6.10
2017-12-13T20:31:34.579Z,6.77
2017-12-13T20:34:02.982Z,7.43
2017-12-13T20:36:30.535Z,6.30
2017-12-13T20:38:58.148Z,6.80
2017-12-13T20:41:25.855Z,6.60
2017-12-13T20:43:54.188Z,7.20
2017-12-13T20:46:21.710Z,5.63
2017-12-13T20:48:49.256Z,5.50
2017-12-13T20:51:16.818Z,6.00
2017-12-13T20:53:44.338Z,6.50
2017-12-13T20:56:11.910Z,5.80
2017-12-13T20:58:40.189Z,6.30
2017-12-13T21:01:07.779Z,6.80
2017-12-13T21:03:35.410Z,6.27
2017-12-13T21:06:03.856Z,6.00
2017-12-13T21:08:31.350Z,5.40
2017-12-13T21:10:58.935Z,6.10
2017-12-13T21:13:26.508Z,6.03
2017-12-13T21:15:54.043Z,5.47
2017-12-13T21:18:22.342Z,6.37
2017-12-13T21:20:49.886Z,5.90
2017-12-13T21:23:18.560Z,5.87
2017-12-13T21:25:46.908Z,5.60
2017-12-13T21:28:14.414Z,5.13
2017-12-13T21:30:42.716Z,6.60
2017-12-13T21:33:10.299Z,6.60
2017-12-13T21:35:37.864Z,6.00
2017-12-13T21:38:05.975Z,5.87
2017-12-13T21:40:34.312Z,6.07
2017-12-13T21:43:01.826Z,5.77
2017-12-13T21:45:30.115Z,5.77
2017-12-13T21:47:57.684Z,5.67
2017-12-13T21:50:25.186Z,5.60
2017-12-13T21:52:52.742Z,6.00
2017-12-13T21:55:20.336Z,5.50
2017-12-13T21:57:48.702Z,5.60
2017-12-13T22:00:16.213Z,5.60
2017-12-13T22:02:43.746Z,5.70
2017-12-13T22:05:11.246Z,5.43
2017-12-13T22:07:38.791Z,5.33
2017-12-13T22:10:06.454Z,5.80
2017-12-13T22:12:33.982Z,5.20
2017-12-13T22:15:01.490Z,5.87
2017-12-13T22:17:29.054Z,5.30
2017-12-13T22:19:56.554Z,5.83
2017-12-13T22:22:24.834Z,5.03
2017-12-13T22:24:53.131Z,5.40
2017-12-13T22:27:20.625Z,5.10
2017-12-13T22:29:48.122Z,5.20
2017-12-13T22:32:16.449Z,6.10
2017-12-13T22:34:43.947Z,5.50
2017-12-13T22:37:11.478Z,5.10
2017-12-13T22:39:39.037Z,5.27
2017-12-13T22:42:06.566Z,5.93
2017-12-13T22:44:34.066Z,5.00
2017-12-13T22:47:01.622Z,5.60
2017-12-13T22:49:29.148Z,5.60
2017-12-13T22:51:56.954Z,5.70
2017-12-13T22:54:24.526Z,4.47
2017-12-13T22:56:52.052Z,4.73
2017-12-13T22:59:19.562Z,5.57
2017-12-13T23:01:47.855Z,5.70
2017-12-13T23:04:15.374Z,5.50
2017-12-13T23:06:42.873Z,5.20
2017-12-13T23:09:10.429Z,6.13
2017-12-13T23:11:37.962Z,5.80
2017-12-13T23:14:06.229Z,5.30
2017-12-13T23:16:33.786Z,5.27
2017-12-13T23:19:07.540Z,4.97
2017-12-13T23:21:36.061Z,4.60
2017-12-13T23:24:03.582Z,5.30
2017-12-13T23:26:31.134Z,5.07
2017-12-13T23:28:58.693Z,5.17
2017-12-13T23:31:26.214Z,5.27
2017-12-13T23:33:53.714Z,5.20
2017-12-13T23:36:21.641Z,5.27
2017-12-13T23:38:49.929Z,5.63
2017-12-13T23:41:17.446Z,5.33
2017-12-13T23:43:45.000Z,5.03
2017-12-13T23:46:12.526Z,5.33
2017-12-13T23:48:40.830Z,5.30
2017-12-13T23:51:08.366Z,4.97
2017-12-13T23:53:35.866Z,5.60
2017-12-13T23:56:03.441Z,5.17
2017-12-13T23:58:30.985Z,5.50
